• Join FlightAware (Why Join?)
  • Login
  • US Flag 
11:31PM EDT


 

Airport Tracker/Info


-or-


 

Live Flight TrackerFlight Track Log ✈ CPZ5750 ✈ 13-Jul-2013 ✈ KALB - KMSP

Flight Track Log - Related Links

Times and Time Zones

All times are in EDT time to prevent confusion due to time zone crossing. See the CPZ5750 flight status page for this flight to view local times or setup timezone preferences in your user account.

Time Position Orientation Groundspeed Altitude Reporting Facility
EDT Latitude Longitude Course Direction KTS MPH feet Rate Location/Type
07:47PM 42.8522 -73.8617 319° Northwest 235 270 3,900  Level Boston Center
07:48PM 42.8201 -74.2673 285° West  Level FlightAware Approximate
07:48PM 42.9014 -73.9197 319° Northwest 251 289 6,600  Level Boston Center
07:49PM 42.8487 -74.4254 283° West  Level FlightAware Approximate
07:49PM 42.9589 -73.9892 319° Northwest 263 303 9,700  Level Boston Center
07:50PM 42.8866 -74.5738 281° West  Level FlightAware Approximate
07:50PM 42.9803 -74.0889 286° West 268 308 11,700  Level Boston Center
07:51PM 42.9086 -74.7341 281° West  Level FlightAware Approximate
07:51PM 42.9911 -74.2086 277° West 308 354 13,800  Level Boston Center
07:52PM 42.9304 -74.8945 281° West  Level FlightAware Approximate
07:52PM 43.0036 -74.3422 277° West 331 381 16,100  Level Boston Center
07:53PM 43.0178 -74.4792 278° West 337 388 17,900 1,620 Climbing Boston Center
07:54PM 43.0281 -74.5986 277° West 337 388 19,400 1,560 Climbing Boston Center
07:55PM 43.0381 -74.7325 276° West 350 403 21,100 1,620 Climbing Boston Center
07:56PM 43.0519 -74.8694 278° West 355 409 22,700 1,500 Climbing Boston Center
07:57PM 43.0633 -75.0092 276° West 367 422 24,200 1,440 Climbing Boston Center
07:58PM 43.0767 -75.1575 277° West 379 436 25,600 1,380 Climbing Boston Center
07:59PM 43.0875 -75.3031 276° West 385 443 27,000 1,260 Climbing Boston Center
08:00PM 43.1025 -75.4517 278° West 391 450 28,200 1,140 Climbing Boston Center
08:01PM 43.1194 -75.6033 279° West 397 457 29,300 960 Climbing Boston Center
08:03PM 43.1333 -75.8167 275° West 410 472 30,800 960 Climbing Toronto Center
08:04PM 43.1333 -75.9833 270° West 410 472 31,900 600 Climbing Toronto Center
08:05PM 43.1667 -76.1333 287° West 410 472 32,000  Climbing Toronto Center
08:06PM 43.1667 -76.3000 270° West 410 472 32,000  Level Toronto Center
08:07PM 43.1833 -76.4333 280° West 410 472 32,000  Level Toronto Center
08:08PM 43.1833 -76.5833 270° West 410 472 32,000  Level Toronto Center
08:09PM 43.2167 -76.7500 285° West 410 472 32,000  Level Toronto Center
08:10PM 43.2333 -76.8833 280° West 410 472 32,000  Level Toronto Center
08:11PM 43.2333 -77.0667 270° West 410 472 32,000  Level Toronto Center
08:12PM 43.2500 -77.2000 280° West 400 460 32,000  Level Toronto Center
08:13PM 43.2667 -77.3667 278° West 410 472 32,000  Level Toronto Center
08:14PM 43.3000 -77.5333 285° West 410 472 32,000  Level Toronto Center
08:15PM 43.3167 -77.6833 279° West 410 472 32,000  Level Toronto Center
08:16PM 43.3500 -77.8167 289° West 410 472 32,000  Level Toronto Center
08:17PM 43.3667 -77.9667 279° West 410 472 32,000  Level Toronto Center
08:18PM 43.3833 -78.1167 279° West 410 472 32,000  Level Toronto Center
08:19PM 43.4167 -78.2833 285° West 410 472 32,000  Level Toronto Center
08:20PM 43.4333 -78.4333 279° West 410 472 32,000  Level Toronto Center
08:21PM 43.4667 -78.5833 287° West 410 472 32,000  Level Toronto Center
08:22PM 43.5000 -78.7333 287° West 410 472 32,000  Level Toronto Center
08:23PM 43.5167 -78.8667 280° West 410 472 32,000  Level Toronto Center
08:24PM 43.5333 -79.0333 278° West 410 472 32,000  Level Toronto Center
08:25PM 43.5667 -79.1667 289° West 410 472 32,000  Level Toronto Center
08:26PM 43.5833 -79.3333 278° West 410 472 32,000  Level Toronto Center
08:27PM 43.6000 -79.5000 278° West 400 460 32,000  Level Toronto Center
08:28PM 43.6333 -79.6500 287° West 420 483 32,000  Level Toronto Center
08:29PM 43.6500 -79.8167 278° West 430 495 32,000  Level Toronto Center
08:30PM 43.6667 -79.9500 280° West 410 472 32,000  Level Toronto Center
08:31PM 43.7000 -80.1167 286° West 410 472 32,000  Level Toronto Center
08:32PM 43.7167 -80.2833 278° West 410 472 32,000  Level Toronto Center
08:33PM 43.7500 -80.4333 287° West 410 472 32,000  Level Toronto Center
08:34PM 43.7667 -80.5833 279° West 410 472 32,000  Level Toronto Center
08:35PM 43.7833 -80.7333 279° West 410 472 32,000  Level Toronto Center
08:36PM 43.8000 -80.8833 279° West 410 472 32,000  Level Toronto Center
08:37PM 43.8167 -81.0500 278° West 410 472 32,000  Level Toronto Center
08:38PM 43.8333 -81.2000 279° West 410 472 32,000  Level Toronto Center
08:39PM 43.8667 -81.3667 286° West 410 472 32,000  Level Toronto Center
08:40PM 43.8833 -81.5000 280° West 420 483 32,000  Level Toronto Center
08:41PM 43.9000 -81.7000 277° West 420 483 32,000  Level Toronto Center
08:42PM 43.9333 -81.8333 289° West 420 483 32,000  Level Toronto Center
08:43PM 43.9333 -82.0000 270° West 420 483 32,000  Level Toronto Center
08:44PM 43.9667 -82.1500 287° West 420 483 32,000  Level Toronto Center
08:45PM 43.9833 -82.3167 278° West 420 483 32,000  Level Toronto Center
08:46PM 44.0000 -82.4833 278° West 420 483 32,000  Level Toronto Center
08:47PM 44.0333 -82.6500 286° West 420 483 32,000  Level Toronto Center
08:48PM 44.0483 -82.7914 278° West 426 490 32,000  Level Minneapolis Center
08:49PM 44.0669 -82.9542 279° West 428 493 32,000  Level Minneapolis Center
08:50PM 44.0869 -83.1183 280° West 430 495 32,000  Level Minneapolis Center
08:51PM 44.1056 -83.2847 279° West 434 499 32,000  Level Minneapolis Center
08:52PM 44.1244 -83.4531 279° West 439 505 32,000 -60 Level Minneapolis Center
08:53PM 44.1433 -83.6211 279° West 441 507 31,900  Descending Minneapolis Center
08:54PM 44.1625 -83.7911 279° West 444 511 32,000 420 Climbing Minneapolis Center
08:55PM 44.1822 -83.9647 279° West 451 519 32,800 960 Climbing Minneapolis Center
08:56PM 44.2103 -84.1692 281° West 450 518 34,000 540 Climbing Minneapolis Center
08:57PM 44.2314 -84.3442 280° West 456 525 34,000  Level Minneapolis Center
08:58PM 44.2533 -84.5211 280° West 463 533 34,000  Level Minneapolis Center
08:59PM 44.2761 -84.6978 280° West 462 532 34,000  Level Minneapolis Center
09:00PM 44.2972 -84.8736 280° West 462 532 34,000  Level Minneapolis Center
09:01PM 44.3181 -85.0489 279° West 460 529 34,000  Level Minneapolis Center
09:02PM 44.3394 -85.2258 280° West 460 529 34,000 360 Level Minneapolis Center
09:03PM 44.3592 -85.4008 279° West 457 526 34,800 960 Climbing Minneapolis Center
09:04PM 44.3842 -85.6083 280° West 450 518 36,000 540 Climbing Minneapolis Center
09:05PM 44.4039 -85.7836 279° West 454 522 36,000  Level Minneapolis Center
09:06PM 44.4239 -85.9619 279° West 461 531 36,000  Level Minneapolis Center
09:07PM 44.4428 -86.1406 278° West 459 528 36,000  Level Minneapolis Center
09:08PM 44.4622 -86.3192 279° West 460 529 36,000  Level Minneapolis Center
09:09PM 44.4803 -86.4953 278° West 457 526 36,000  Level Minneapolis Center
09:10PM 44.4989 -86.6689 279° West 453 521 36,000  Level Minneapolis Center
09:12PM 44.5172 -86.8411 279° West 449 517 36,000  Level Minneapolis Center
09:13PM 44.5397 -87.0494 279° West 451 519 36,000  Level Minneapolis Center
09:14PM 44.5558 -87.2211 278° West 446 513 36,000  Level Minneapolis Center
09:15PM 44.5797 -87.4628 278° West 448 516 36,000  Level Minneapolis Center
09:16PM 44.5964 -87.6353 278° West 448 516 36,000  Level Minneapolis Center
09:17PM 44.6136 -87.8078 278° West 446 513 36,000  Level Minneapolis Center
09:18PM 44.6281 -87.9722 277° West 444 511 36,000  Level Minneapolis Center
09:19PM 44.6433 -88.1428 277° West 441 507 36,000  Level Minneapolis Center
09:20PM 44.6625 -88.3442 278° West 447 514 36,000  Level Minneapolis Center
09:21PM 44.6772 -88.5144 277° West 444 511 36,000  Level Minneapolis Center
09:22PM 44.6914 -88.6856 277° West 443 510 36,000  Level Minneapolis Center
09:23PM 44.7053 -88.8558 277° West 441 507 36,000  Level Minneapolis Center
09:24PM 44.7197 -89.0253 277° West 440 506 36,000  Level Minneapolis Center
09:25PM 44.7317 -89.1658 277° West 437 503 36,000 -540 Level Minneapolis Center
09:26PM 44.7478 -89.3636 277° West 437 503 35,000 -1,080 Descending Minneapolis Center
09:27PM 44.7636 -89.5619 276° West 438 504 33,800 -960 Descending Minneapolis Center
09:28PM 44.7733 -89.6783 277° West 444 511 33,100 -900 Descending Minneapolis Center
09:29PM 44.7889 -89.8875 276° West 460 529 32,000 -540 Descending Minneapolis Center
09:30PM 44.8039 -90.0956 276° West 461 531 32,000  Level Minneapolis Center
09:31PM 44.8167 -90.2731 276° West 457 526 32,000  Level Minneapolis Center
09:32PM 44.8297 -90.4503 276° West 457 526 32,000  Level Minneapolis Center
09:33PM 44.8403 -90.6117 275° West 446 513 32,000  Level Minneapolis Center
09:34PM 44.8547 -90.8161 276° West 447 514 32,000 -780 Level Minneapolis Center
09:35PM 44.8658 -90.9942 275° West 447 514 30,500 -2,040 Descending Minneapolis Center
09:36PM 44.8769 -91.1653 275° West 442 509 27,900 -2,520 Descending Minneapolis Center
09:37PM 44.8869 -91.3311 275° West 432 497 25,400 -2,460 Descending Minneapolis Center
09:38PM 44.8997 -91.4908 276° West 417 480 23,000 -2,280 Descending Minneapolis Center
09:39PM 44.9264 -91.6372 284° West 394 453 20,800 -2,160 Descending Minneapolis Center
09:40PM 44.9528 -91.7794 285° West 383 441 18,600 -2,040 Descending Minneapolis Center
09:41PM 44.9808 -91.9133 287° West 363 418 16,700 -1,920 Descending Minneapolis Center
09:42PM 45.0042 -92.0425 284° West 344 396 14,700 -2,220 Descending Minneapolis Center
09:44PM 45.0311 -92.1894 285° West 324 373 12,300 -1,860 Descending Minneapolis Center
09:45PM 45.0453 -92.3125 279° West 320 368 11,000 -780 Descending Minneapolis Center
09:46PM 45.0267 -92.4311 258° West 312 359 10,800 -600 Descending Minneapolis Center
09:47PM 45.0089 -92.5414 257° West 292 336 9,800 -900 Descending Minneapolis Center
09:48PM 44.9922 -92.6497 258° West 283 326 9,000 -420 Descending Minneapolis Center
09:49PM 44.9764 -92.7553 258° West 278 320 9,000  Level Minneapolis Center
09:50PM 44.9800 -92.8642 273° West 280 322 9,000 -660 Level Minneapolis Center
09:51PM 44.9831 -92.9725 272° West 278 320 7,700 -1,620 Descending Minneapolis Center
09:52PM 44.9900 -93.0975 275° West 270 311 5,800 -1,860 Descending Minneapolis Center
09:53PM 44.9911 -93.2022 271° West 274 315 4,000 -1,260 Descending Minneapolis Center
09:54PM 44.9636 -93.2756 242° Southwest 207 238 3,300 -720 Descending Minneapolis Center